sensor_id;sensor_type;location;lat;lon;timestamp;pressure;altitude;pressure_sealevel;temperature;humidity
26823;BME280;14852;51.910;8.878;2023-02-13T00:01:35;101937.34;;;10.52;64.24
26823;BME280;14852;51.910;8.878;2023-02-13T00:04:01;101940.81;;;10.51;64.18
26823;BME280;14852;51.910;8.878;2023-02-13T00:06:26;101937.41;;;10.49;64.21
26823;BME280;14852;51.910;8.878;2023-02-13T00:08:52;101935.72;;;10.45;63.83
26823;BME280;14852;51.910;8.878;2023-02-13T00:11:18;101934.91;;;10.42;63.87
26823;BME280;14852;51.910;8.878;2023-02-13T00:13:45;101937.53;;;10.40;64.15
26823;BME280;14852;51.910;8.878;2023-02-13T00:16:11;101940.13;;;10.42;63.95
26823;BME280;14852;51.910;8.878;2023-02-13T00:18:37;101941.81;;;10.44;64.25
26823;BME280;14852;51.910;8.878;2023-02-13T00:21:08;101937.50;;;10.43;64.13
26823;BME280;14852;51.910;8.878;2023-02-13T00:23:35;101943.56;;;10.42;64.23
26823;BME280;14852;51.910;8.878;2023-02-13T00:26:12;101939.25;;;10.43;64.23
26823;BME280;14852;51.910;8.878;2023-02-13T00:28:43;101932.38;;;10.39;64.25
26823;BME280;14852;51.910;8.878;2023-02-13T00:31:16;101934.09;;;10.40;64.05
26823;BME280;14852;51.910;8.878;2023-02-13T00:33:42;101938.47;;;10.38;64.21
26823;BME280;14852;51.910;8.878;2023-02-13T00:36:16;101935.03;;;10.37;64.06
26823;BME280;14852;51.910;8.878;2023-02-13T00:38:44;101930.69;;;10.38;63.89
26823;BME280;14852;51.910;8.878;2023-02-13T00:41:11;101934.94;;;10.40;64.15
26823;BME280;14852;51.910;8.878;2023-02-13T00:43:37;101928.88;;;10.40;63.95
26823;BME280;14852;51.910;8.878;2023-02-13T00:46:04;101928.88;;;10.41;63.98
26823;BME280;14852;51.910;8.878;2023-02-13T00:48:32;101933.19;;;10.42;63.95
26823;BME280;14852;51.910;8.878;2023-02-13T00:50:58;101927.06;;;10.45;63.91
26823;BME280;14852;51.910;8.878;2023-02-13T00:53:25;101925.31;;;10.47;63.81
26823;BME280;14852;51.910;8.878;2023-02-13T00:55:51;101922.75;;;10.45;63.54
26823;BME280;14852;51.910;8.878;2023-02-13T00:58:17;101926.25;;;10.43;63.88
26823;BME280;14852;51.910;8.878;2023-02-13T01:00:44;101929.78;;;10.39;63.86
26823;BME280;14852;51.910;8.878;2023-02-13T01:03:16;101926.34;;;10.38;64.16
26823;BME280;14852;51.910;8.878;2023-02-13T01:05:45;101923.75;;;10.38;63.81
26823;BME280;14852;51.910;8.878;2023-02-13T01:08:12;101928.09;;;10.38;63.62
26823;BME280;14852;51.910;8.878;2023-02-13T01:10:39;101928.09;;;10.38;64.01
26823;BME280;14852;51.910;8.878;2023-02-13T01:13:08;101927.16;;;10.39;63.87
26823;BME280;14852;51.910;8.878;2023-02-13T01:15:34;101930.69;;;10.38;63.96
26823;BME280;14852;51.910;8.878;2023-02-13T01:18:00;101924.66;;;10.36;63.85
26823;BME280;14852;51.910;8.878;2023-02-13T01:20:28;101928.09;;;10.36;63.84
26823;BME280;14852;51.910;8.878;2023-02-13T01:22:54;101926.38;;;10.35;63.71
26823;BME280;14852;51.910;8.878;2023-02-13T01:25:21;101927.25;;;10.34;63.68
26823;BME280;14852;51.910;8.878;2023-02-13T01:27:47;101919.50;;;10.33;64.10
26823;BME280;14852;51.910;8.878;2023-02-13T01:30:16;101925.53;;;10.33;63.69
26823;BME280;14852;51.910;8.878;2023-02-13T01:32:44;101922.13;;;10.31;63.71
26823;BME280;14852;51.910;8.878;2023-02-13T01:35:12;101924.72;;;10.30;63.92
26823;BME280;14852;51.910;8.878;2023-02-13T01:37:39;101921.28;;;10.29;63.88
26823;BME280;14852;51.910;8.878;2023-02-13T01:40:10;101918.69;;;10.29;64.08
26823;BME280;14852;51.910;8.878;2023-02-13T01:42:36;101923.84;;;10.31;64.08
26823;BME280;14852;51.910;8.878;2023-02-13T01:45:24;101918.63;;;10.34;63.70
26823;BME280;14852;51.910;8.878;2023-02-13T01:48:03;101920.38;;;10.32;63.97
26823;BME280;14852;51.910;8.878;2023-02-13T01:50:44;101911.75;;;10.30;63.92
26823;BME280;14852;51.910;8.878;2023-02-13T01:53:26;101901.41;;;10.27;64.05
26823;BME280;14852;51.910;8.878;2023-02-13T01:58:43;101902.38;;;10.21;63.99
26823;BME280;14852;51.910;8.878;2023-02-13T02:01:10;101902.38;;;10.21;64.30
26823;BME280;14852;51.910;8.878;2023-02-13T02:03:46;101895.47;;;10.19;63.84
26823;BME280;14852;51.910;8.878;2023-02-13T02:06:29;101893.72;;;10.17;63.93
26823;BME280;14852;51.910;8.878;2023-02-13T02:09:06;101890.28;;;10.15;64.14
26823;BME280;14852;51.910;8.878;2023-02-13T02:14:27;101893.03;;;10.06;64.26
26823;BME280;14852;51.910;8.878;2023-02-13T02:16:56;101887.00;;;10.06;64.46
26823;BME280;14852;51.910;8.878;2023-02-13T02:19:41;101883.53;;;10.05;64.37
26823;BME280;14852;51.910;8.878;2023-02-13T02:22:38;101882.66;;;10.06;64.12
26823;BME280;14852;51.910;8.878;2023-02-13T02:31:25;101890.41;;;10.09;64.06
26823;BME280;14852;51.910;8.878;2023-02-13T02:37:05;101887.09;;;10.01;64.46
26823;BME280;14852;51.910;8.878;2023-02-13T02:45:57;101887.09;;;10.00;64.54
26823;BME280;14852;51.910;8.878;2023-02-13T02:54:08;101869.81;;;9.99;64.18
26823;BME280;14852;51.910;8.878;2023-02-13T02:57:00;101866.38;;;9.95;64.15
26823;BME280;14852;51.910;8.878;2023-02-13T02:59:30;101869.88;;;9.94;64.28
26823;BME280;14852;51.910;8.878;2023-02-13T03:02:32;101871.53;;;9.98;64.12
26823;BME280;14852;51.910;8.878;2023-02-13T03:05:43;101861.00;;;10.07;64.13
26823;BME280;14852;51.910;8.878;2023-02-13T03:08:29;101863.56;;;10.10;64.58
26823;BME280;14852;51.910;8.878;2023-02-13T03:11:13;101856.59;;;10.12;64.33
26823;BME280;14852;51.910;8.878;2023-02-13T03:14:00;101848.81;;;10.11;64.66
26823;BME280;14852;51.910;8.878;2023-02-13T03:16:28;101856.59;;;10.12;64.26
26823;BME280;14852;51.910;8.878;2023-02-13T03:22:36;101853.97;;;10.14;64.39
26823;BME280;14852;51.910;8.878;2023-02-13T03:25:35;101858.25;;;10.16;64.45
26823;BME280;14852;51.910;8.878;2023-02-13T03:28:27;101856.53;;;10.15;64.63
26823;BME280;14852;51.910;8.878;2023-02-13T03:32:02;101858.25;;;10.18;64.38
26823;BME280;14852;51.910;8.878;2023-02-13T03:34:35;101855.72;;;10.13;64.45
26823;BME280;14852;51.910;8.878;2023-02-13T03:37:43;101856.63;;;10.11;64.63
26823;BME280;14852;51.910;8.878;2023-02-13T03:40:53;101856.59;;;10.12;64.70
26823;BME280;14852;51.910;8.878;2023-02-13T03:46:39;101858.28;;;10.15;63.99
26823;BME280;14852;51.910;8.878;2023-02-13T03:49:21;101856.56;;;10.14;64.18
26823;BME280;14852;51.910;8.878;2023-02-13T03:52:44;101866.16;;;10.09;64.14
26823;BME280;14852;51.910;8.878;2023-02-13T03:55:18;101865.44;;;10.01;63.97
26823;BME280;14852;51.910;8.878;2023-02-13T03:58:16;101862.94;;;9.93;63.89
26823;BME280;14852;51.910;8.878;2023-02-13T04:01:07;101868.19;;;9.92;64.15
26823;BME280;14852;51.910;8.878;2023-02-13T04:03:50;101860.41;;;9.92;63.93
26823;BME280;14852;51.910;8.878;2023-02-13T04:06:29;101864.78;;;9.90;64.35
26823;BME280;14852;51.910;8.878;2023-02-13T04:08:56;101864.78;;;9.88;63.87
26823;BME280;14852;51.910;8.878;2023-02-13T04:11:32;101865.66;;;9.89;64.22
26823;BME280;14852;51.910;8.878;2023-02-13T04:14:12;101861.34;;;9.86;64.16
26823;BME280;14852;51.910;8.878;2023-02-13T04:16:50;101864.88;;;9.82;64.21
26823;BME280;14852;51.910;8.878;2023-02-13T04:19:16;101867.56;;;9.77;64.33
26823;BME280;14852;51.910;8.878;2023-02-13T04:21:43;101875.34;;;9.77;64.08
26823;BME280;14852;51.910;8.878;2023-02-13T04:24:09;101870.16;;;9.76;64.40
26823;BME280;14852;51.910;8.878;2023-02-13T04:26:38;101864.13;;;9.75;64.18
26823;BME280;14852;51.910;8.878;2023-02-13T04:29:05;101869.28;;;9.77;64.33
26823;BME280;14852;51.910;8.878;2023-02-13T04:31:31;101867.56;;;9.77;63.90
26823;BME280;14852;51.910;8.878;2023-02-13T04:33:57;101869.28;;;9.78;63.89
26823;BME280;14852;51.910;8.878;2023-02-13T04:36:22;101867.56;;;9.77;64.10
26823;BME280;14852;51.910;8.878;2023-02-13T04:38:49;101871.00;;;9.78;64.37
26823;BME280;14852;51.910;8.878;2023-02-13T04:41:15;101863.25;;;9.76;64.07
26823;BME280;14852;51.910;8.878;2023-02-13T04:43:41;101865.81;;;9.78;64.07
26823;BME280;14852;51.910;8.878;2023-02-13T04:46:07;101868.41;;;9.78;64.31
26823;BME280;14852;51.910;8.878;2023-02-13T04:48:32;101861.47;;;9.78;64.07
26823;BME280;14852;51.910;8.878;2023-02-13T04:50:58;101858.88;;;9.78;64.18
26823;BME280;14852;51.910;8.878;2023-02-13T04:53:24;101853.72;;;9.75;63.96
26823;BME280;14852;51.910;8.878;2023-02-13T04:55:51;101861.53;;;9.74;63.91
26823;BME280;14852;51.910;8.878;2023-02-13T04:58:17;101865.88;;;9.73;64.24
26823;BME280;14852;51.910;8.878;2023-02-13T05:00:43;101852.91;;;9.72;64.07
26823;BME280;14852;51.910;8.878;2023-02-13T05:03:11;101853.78;;;9.72;64.19
26823;BME280;14852;51.910;8.878;2023-02-13T05:05:39;101852.91;;;9.72;64.31
26823;BME280;14852;51.910;8.878;2023-02-13T05:08:06;101848.63;;;9.69;64.25
26823;BME280;14852;51.910;8.878;2023-02-13T05:10:33;101856.47;;;9.68;63.98
26823;BME280;14852;51.910;8.878;2023-02-13T05:12:59;101848.66;;;9.68;64.18
26823;BME280;14852;51.910;8.878;2023-02-13T05:15:25;101852.13;;;9.68;64.06
26823;BME280;14852;51.910;8.878;2023-02-13T05:17:50;101846.00;;;9.71;64.11
26823;BME280;14852;51.910;8.878;2023-02-13T05:20:17;101843.38;;;9.74;63.91
26823;BME280;14852;51.910;8.878;2023-02-13T05:22:53;101847.66;;;9.76;63.85
26823;BME280;14852;51.910;8.878;2023-02-13T05:25:40;101852.00;;;9.76;64.08
26823;BME280;14852;51.910;8.878;2023-02-13T05:28:07;101847.66;;;9.76;64.00
26823;BME280;14852;51.910;8.878;2023-02-13T05:30:53;101843.34;;;9.75;64.04
26823;BME280;14852;51.910;8.878;2023-02-13T05:33:22;101845.94;;;9.77;63.85
26823;BME280;14852;51.910;8.878;2023-02-13T05:35:47;101858.94;;;9.74;63.96
26823;BME280;14852;51.910;8.878;2023-02-13T05:38:13;101855.50;;;9.72;64.22
26823;BME280;14852;51.910;8.878;2023-02-13T05:40:39;101860.72;;;9.70;64.24
26823;BME280;14852;51.910;8.878;2023-02-13T05:43:05;101859.00;;;9.69;64.18
26823;BME280;14852;51.910;8.878;2023-02-13T05:45:30;101862.44;;;9.71;63.98
26823;BME280;14852;51.910;8.878;2023-02-13T05:47:56;101862.47;;;9.70;63.96
26823;BME280;14852;51.910;8.878;2023-02-13T05:50:22;101856.38;;;9.72;64.39
26823;BME280;14852;51.910;8.878;2023-02-13T05:52:47;101854.63;;;9.73;64.11
26823;BME280;14852;51.910;8.878;2023-02-13T05:55:14;101857.22;;;9.74;64.05
26823;BME280;14852;51.910;8.878;2023-02-13T05:57:39;101852.00;;;9.76;64.10
26823;BME280;14852;51.910;8.878;2023-02-13T06:00:06;101863.25;;;9.76;64.30
26823;BME280;14852;51.910;8.878;2023-02-13T06:02:32;101855.44;;;9.78;64.00
26823;BME280;14852;51.910;8.878;2023-02-13T06:04:57;101866.59;;;9.81;64.41
26823;BME280;14852;51.910;8.878;2023-02-13T06:07:23;101870.03;;;9.84;63.94
26823;BME280;14852;51.910;8.878;2023-02-13T06:09:49;101871.75;;;9.85;64.01
26823;BME280;14852;51.910;8.878;2023-02-13T06:12:15;101875.22;;;9.84;63.82
26823;BME280;14852;51.910;8.878;2023-02-13T06:14:40;101875.22;;;9.84;64.16
26823;BME280;14852;51.910;8.878;2023-02-13T06:17:06;101869.19;;;9.81;63.94
26823;BME280;14852;51.910;8.878;2023-02-13T06:19:32;101875.31;;;9.80;64.17
26823;BME280;14852;51.910;8.878;2023-02-13T06:21:58;101876.19;;;9.79;63.85
26823;BME280;14852;51.910;8.878;2023-02-13T06:24:23;101881.31;;;9.82;63.87
26823;BME280;14852;51.910;8.878;2023-02-13T06:26:49;101875.22;;;9.84;64.33
26823;BME280;14852;51.910;8.878;2023-02-13T06:29:15;101888.19;;;9.87;64.25
26823;BME280;14852;51.910;8.878;2023-02-13T06:31:40;101889.91;;;9.88;63.94
26823;BME280;14852;51.910;8.878;2023-02-13T06:34:06;101891.63;;;9.87;64.15
26823;BME280;14852;51.910;8.878;2023-02-13T06:36:32;101898.53;;;9.88;63.96
26823;BME280;14852;51.910;8.878;2023-02-13T06:38:58;101902.88;;;9.88;64.32
26823;BME280;14852;51.910;8.878;2023-02-13T06:41:24;101898.56;;;9.87;64.04
26823;BME280;14852;51.910;8.878;2023-02-13T06:43:50;101905.44;;;9.89;64.03
26823;BME280;14852;51.910;8.878;2023-02-13T06:46:16;101908.88;;;9.91;64.11
26823;BME280;14852;51.910;8.878;2023-02-13T06:48:41;101901.97;;;9.90;64.31
26823;BME280;14852;51.910;8.878;2023-02-13T06:51:07;101899.38;;;9.90;64.00
26823;BME280;14852;51.910;8.878;2023-02-13T06:53:33;101915.84;;;9.89;63.78
26823;BME280;14852;51.910;8.878;2023-02-13T06:56:03;101907.19;;;9.89;63.87
26823;BME280;14852;51.910;8.878;2023-02-13T06:58:30;101920.22;;;9.86;64.07
26823;BME280;14852;51.910;8.878;2023-02-13T07:00:56;101909.88;;;9.81;64.27
26823;BME280;14852;51.910;8.878;2023-02-13T07:03:22;101910.03;;;9.72;64.43
26823;BME280;14852;51.910;8.878;2023-02-13T07:05:47;101915.22;;;9.70;64.19
26823;BME280;14852;51.910;8.878;2023-02-13T07:08:16;101920.50;;;9.67;64.08
26823;BME280;14852;51.910;8.878;2023-02-13T07:10:42;101918.75;;;9.68;64.03
26823;BME280;14852;51.910;8.878;2023-02-13T07:13:09;101913.50;;;9.71;64.23
26823;BME280;14852;51.910;8.878;2023-02-13T07:15:36;101915.22;;;9.72;63.95
26823;BME280;14852;51.910;8.878;2023-02-13T07:18:02;101913.50;;;9.71;63.97
26823;BME280;14852;51.910;8.878;2023-02-13T07:20:28;101916.94;;;9.73;63.89
26823;BME280;14852;51.910;8.878;2023-02-13T07:23:02;101921.22;;;9.75;64.15
26823;BME280;14852;51.910;8.878;2023-02-13T07:25:29;101910.00;;;9.73;64.37
26823;BME280;14852;51.910;8.878;2023-02-13T07:28:00;101914.34;;;9.71;63.87
26823;BME280;14852;51.910;8.878;2023-02-13T07:30:26;101907.56;;;9.64;64.16
26823;BME280;14852;51.910;8.878;2023-02-13T07:32:52;101916.22;;;9.63;63.98
26823;BME280;14852;51.910;8.878;2023-02-13T07:35:18;101908.44;;;9.62;64.18
26823;BME280;14852;51.910;8.878;2023-02-13T07:37:44;101911.03;;;9.62;64.33
26823;BME280;14852;51.910;8.878;2023-02-13T07:40:10;101914.47;;;9.64;64.42
26823;BME280;14852;51.910;8.878;2023-02-13T07:42:36;101919.66;;;9.64;64.35
26823;BME280;14852;51.910;8.878;2023-02-13T07:45:01;101917.09;;;9.62;63.95
26823;BME280;14852;51.910;8.878;2023-02-13T07:47:30;101924.88;;;9.62;64.05
26823;BME280;14852;51.910;8.878;2023-02-13T07:49:55;101922.28;;;9.62;64.05
26823;BME280;14852;51.910;8.878;2023-02-13T07:52:21;101925.69;;;9.66;64.29
26823;BME280;14852;51.910;8.878;2023-02-13T07:54:47;101921.34;;;9.68;64.44
26823;BME280;14852;51.910;8.878;2023-02-13T07:57:14;101924.75;;;9.71;63.95
26823;BME280;14852;51.910;8.878;2023-02-13T07:59:40;101923.00;;;9.73;64.38
26823;BME280;14852;51.910;8.878;2023-02-13T08:02:13;101929.84;;;9.77;64.22
26823;BME280;14852;51.910;8.878;2023-02-13T08:04:40;101928.91;;;9.81;63.87
26823;BME280;14852;51.910;8.878;2023-02-13T08:07:11;101929.78;;;9.82;64.09
26823;BME280;14852;51.910;8.878;2023-02-13T08:09:37;101924.59;;;9.82;63.90
26823;BME280;14852;51.910;8.878;2023-02-13T08:12:21;101927.97;;;9.87;64.22
26823;BME280;14852;51.910;8.878;2023-02-13T08:14:47;101932.25;;;9.91;63.67
26823;BME280;14852;51.910;8.878;2023-02-13T08:17:13;101937.38;;;9.96;63.62
26823;BME280;14852;51.910;8.878;2023-02-13T08:19:38;101933.00;;;9.98;63.53
26823;BME280;14852;51.910;8.878;2023-02-13T08:22:04;101933.03;;;9.96;63.52
26823;BME280;14852;51.910;8.878;2023-02-13T08:24:31;101934.75;;;9.97;63.91
26823;BME280;14852;51.910;8.878;2023-02-13T08:26:57;101927.88;;;9.93;63.48
26823;BME280;14852;51.910;8.878;2023-02-13T08:29:23;101934.78;;;9.94;63.64
26823;BME280;14852;51.910;8.878;2023-02-13T08:31:49;101934.78;;;9.96;63.61
26823;BME280;14852;51.910;8.878;2023-02-13T08:34:14;101931.31;;;9.95;63.38
26823;BME280;14852;51.910;8.878;2023-02-13T08:36:40;101927.88;;;9.93;63.45
26823;BME280;14852;51.910;8.878;2023-02-13T08:39:08;101932.97;;;10.02;63.58
26823;BME280;14852;51.910;8.878;2023-02-13T08:41:33;101928.53;;;10.06;63.21
26823;BME280;14852;51.910;8.878;2023-02-13T08:44:00;101927.66;;;10.08;63.21
26823;BME280;14852;51.910;8.878;2023-02-13T08:46:25;101929.38;;;10.09;63.33
26823;BME280;14852;51.910;8.878;2023-02-13T08:48:51;101938.03;;;10.10;63.21
26823;BME280;14852;51.910;8.878;2023-02-13T08:51:17;101935.38;;;10.13;63.13
26823;BME280;14852;51.910;8.878;2023-02-13T08:53:43;101938.81;;;10.15;63.01
26823;BME280;14852;51.910;8.878;2023-02-13T08:56:09;101930.97;;;10.16;62.92
26823;BME280;14852;51.910;8.878;2023-02-13T08:58:35;101928.44;;;10.15;63.18
26823;BME280;14852;51.910;8.878;2023-02-13T09:01:06;101930.13;;;10.16;63.11
26823;BME280;14852;51.910;8.878;2023-02-13T09:03:33;101929.31;;;10.14;63.01
26823;BME280;14852;51.910;8.878;2023-02-13T09:06:00;101929.25;;;10.19;63.07
26823;BME280;14852;51.910;8.878;2023-02-13T09:08:26;101934.38;;;10.23;62.89
26823;BME280;14852;51.910;8.878;2023-02-13T09:10:59;101931.66;;;10.29;63.00
26823;BME280;14852;51.910;8.878;2023-02-13T09:13:28;101924.66;;;10.36;62.87
26823;BME280;14852;51.910;8.878;2023-02-13T09:15:57;101921.97;;;10.39;62.73
26823;BME280;14852;51.910;8.878;2023-02-13T09:18:23;101920.13;;;10.45;62.48
26823;BME280;14852;51.910;8.878;2023-02-13T09:20:49;101923.47;;;10.52;62.37
26823;BME280;14852;51.910;8.878;2023-02-13T09:23:14;101926.88;;;10.56;62.48
26823;BME280;14852;51.910;8.878;2023-02-13T09:25:40;101933.69;;;10.63;62.44
26823;BME280;14852;51.910;8.878;2023-02-13T09:28:06;101935.34;;;10.67;62.47
26823;BME280;14852;51.910;8.878;2023-02-13T09:30:32;101934.50;;;10.66;62.25
26823;BME280;14852;51.910;8.878;2023-02-13T09:32:57;101931.00;;;10.69;62.28
26823;BME280;14852;51.910;8.878;2023-02-13T09:35:23;101938.81;;;10.67;62.52
26823;BME280;14852;51.910;8.878;2023-02-13T09:37:49;101944.94;;;10.63;62.54
26823;BME280;14852;51.910;8.878;2023-02-13T09:40:28;101946.63;;;10.66;62.52
26823;BME280;14852;51.910;8.878;2023-02-13T09:43:44;101943.19;;;10.65;62.51
26823;BME280;14852;51.910;8.878;2023-02-13T09:46:17;101943.16;;;10.67;62.12
26823;BME280;14852;51.910;8.878;2023-02-13T09:48:48;101945.75;;;10.67;62.39
26823;BME280;14852;51.910;8.878;2023-02-13T09:51:19;101950.03;;;10.71;62.42
26823;BME280;14852;51.910;8.878;2023-02-13T09:54:00;101948.25;;;10.73;62.19
26823;BME280;14852;51.910;8.878;2023-02-13T09:57:02;101946.59;;;10.69;61.92
26823;BME280;14852;51.910;8.878;2023-02-13T10:06:03;101956.88;;;10.73;61.44
26823;BME280;14852;51.910;8.878;2023-02-13T10:12:07;101943.97;;;10.70;61.58
26823;BME280;14852;51.910;8.878;2023-02-13T10:15:07;101950.00;;;10.72;61.70
26823;BME280;14852;51.910;8.878;2023-02-13T10:17:43;101943.88;;;10.73;61.89
26823;BME280;14852;51.910;8.878;2023-02-13T10:20:38;101943.81;;;10.78;61.76
26823;BME280;14852;51.910;8.878;2023-02-13T10:26:21;101947.03;;;10.91;61.39
26823;BME280;14852;51.910;8.878;2023-02-13T10:29:05;101939.91;;;11.00;61.15
26823;BME280;14852;51.910;8.878;2023-02-13T10:31:53;101942.38;;;11.08;61.21
26823;BME280;14852;51.910;8.878;2023-02-13T10:34:24;101938.84;;;11.10;60.99
26823;BME280;14852;51.910;8.878;2023-02-13T10:36:52;101936.16;;;11.15;61.12
26823;BME280;14852;51.910;8.878;2023-02-13T10:39:27;101938.88;;;11.09;60.80
26823;BME280;14852;51.910;8.878;2023-02-13T10:42:26;101943.22;;;11.08;60.79
26823;BME280;14852;51.910;8.878;2023-02-13T10:45:43;101942.50;;;11.02;60.95
26823;BME280;14852;51.910;8.878;2023-02-13T10:49:03;101945.03;;;11.06;61.05
26823;BME280;14852;51.910;8.878;2023-02-13T10:51:58;101931.19;;;11.04;60.71
26823;BME280;14852;51.910;8.878;2023-02-13T10:54:56;101935.41;;;11.08;60.90
26823;BME280;14852;51.910;8.878;2023-02-13T11:00:34;101933.47;;;11.19;60.82
26823;BME280;14852;51.910;8.878;2023-02-13T11:03:00;101920.50;;;11.18;60.70
26823;BME280;14852;51.910;8.878;2023-02-13T11:05:37;101918.69;;;11.20;60.62
26823;BME280;14852;51.910;8.878;2023-02-13T11:08:17;101924.63;;;11.28;60.43
26823;BME280;14852;51.910;8.878;2023-02-13T11:10:44;101930.66;;;11.30;60.26
26823;BME280;14852;51.910;8.878;2023-02-13T11:13:20;101921.13;;;11.31;60.30
26823;BME280;14852;51.910;8.878;2023-02-13T11:16:02;101925.16;;;11.42;60.32
26823;BME280;14852;51.910;8.878;2023-02-13T11:18:38;101923.31;;;11.49;59.91
26823;BME280;14852;51.910;8.878;2023-02-13T11:21:21;101915.53;;;11.47;60.09
26823;BME280;14852;51.910;8.878;2023-02-13T11:23:53;101922.41;;;11.51;59.99
26823;BME280;14852;51.910;8.878;2023-02-13T11:26:34;101920.66;;;11.52;59.94
26823;BME280;14852;51.910;8.878;2023-02-13T11:29:15;101914.69;;;11.45;59.99
26823;BME280;14852;51.910;8.878;2023-02-13T11:31:42;101908.56;;;11.48;59.98
26823;BME280;14852;51.910;8.878;2023-02-13T11:34:25;101913.47;;;11.63;59.87
26823;BME280;14852;51.910;8.878;2023-02-13T11:36:53;101907.91;;;11.78;59.48
26823;BME280;14852;51.910;8.878;2023-02-13T11:39:31;101904.44;;;11.78;59.60
26823;BME280;14852;51.910;8.878;2023-02-13T11:41:57;101908.03;;;11.72;59.37
26823;BME280;14852;51.910;8.878;2023-02-13T11:44:27;101906.34;;;11.70;59.72
26823;BME280;14852;51.910;8.878;2023-02-13T11:46:57;101899.41;;;11.70;59.88
26823;BME280;14852;51.910;8.878;2023-02-13T11:49:27;101900.19;;;11.75;59.83
26823;BME280;14852;51.910;8.878;2023-02-13T11:51:55;101898.50;;;11.71;59.71
26823;BME280;14852;51.910;8.878;2023-02-13T11:59:45;101889.03;;;11.67;59.54
26823;BME280;14852;51.910;8.878;2023-02-13T12:02:28;101884.44;;;11.80;59.56
26823;BME280;14852;51.910;8.878;2023-02-13T12:05:24;101882.56;;;11.86;59.58
26823;BME280;14852;51.910;8.878;2023-02-13T12:07:51;101882.72;;;11.79;59.62
26823;BME280;14852;51.910;8.878;2023-02-13T12:10:26;101879.97;;;11.86;59.59
26823;BME280;14852;51.910;8.878;2023-02-13T12:13:00;101876.47;;;11.87;59.37
26823;BME280;14852;51.910;8.878;2023-02-13T12:15:34;101872.91;;;11.90;59.52
26823;BME280;14852;51.910;8.878;2023-02-13T12:18:26;101865.91;;;11.92;59.28
26823;BME280;14852;51.910;8.878;2023-02-13T12:29:39;101862.59;;;12.21;59.06
26823;BME280;14852;51.910;8.878;2023-02-13T12:40:55;101859.41;;;12.10;59.24
26823;BME280;14852;51.910;8.878;2023-02-13T12:52:39;101839.84;;;12.58;58.17
26823;BME280;14852;51.910;8.878;2023-02-13T12:55:32;101832.03;;;12.58;58.52
26823;BME280;14852;51.910;8.878;2023-02-13T12:58:55;101830.38;;;12.56;58.63
26823;BME280;14852;51.910;8.878;2023-02-13T13:04:34;101826.31;;;12.46;58.69
26823;BME280;14852;51.910;8.878;2023-02-13T13:10:06;101808.88;;;12.46;58.62
26823;BME280;14852;51.910;8.878;2023-02-13T13:12:56;101807.31;;;12.41;58.63
26823;BME280;14852;51.910;8.878;2023-02-13T13:15:38;101809.88;;;12.42;58.82
26823;BME280;14852;51.910;8.878;2023-02-13T13:18:26;101801.13;;;12.45;58.68
26823;BME280;14852;51.910;8.878;2023-02-13T13:21:09;101802.09;;;12.41;58.90
26823;BME280;14852;51.910;8.878;2023-02-13T13:26:14;101806.72;;;12.31;58.61
26823;BME280;14852;51.910;8.878;2023-02-13T13:28:49;101804.03;;;12.34;58.56
26823;BME280;14852;51.910;8.878;2023-02-13T13:31:18;101799.75;;;12.31;58.67
26823;BME280;14852;51.910;8.878;2023-02-13T13:33:46;101801.78;;;12.20;58.31
26823;BME280;14852;51.910;8.878;2023-02-13T13:39:53;101795.16;;;12.09;58.75
26823;BME280;14852;51.910;8.878;2023-02-13T13:42:34;101789.25;;;12.01;58.91
26823;BME280;14852;51.910;8.878;2023-02-13T13:51:12;101783.53;;;11.88;58.83
26823;BME280;14852;51.910;8.878;2023-02-13T13:59:19;101779.25;;;11.85;59.09
26823;BME280;14852;51.910;8.878;2023-02-13T14:05:25;101768.91;;;11.82;58.96
26823;BME280;14852;51.910;8.878;2023-02-13T14:08:02;101770.84;;;11.76;59.30
26823;BME280;14852;51.910;8.878;2023-02-13T14:36:46;101752.03;;;11.63;59.60
26823;BME280;14852;51.910;8.878;2023-02-13T14:44:22;101746.94;;;11.57;59.54
26823;BME280;14852;51.910;8.878;2023-02-13T14:46:50;101758.25;;;11.56;59.64
26823;BME280;14852;51.910;8.878;2023-02-13T14:52:00;101749.63;;;11.54;59.56
26823;BME280;14852;51.910;8.878;2023-02-13T14:54:35;101753.06;;;11.54;59.57
26823;BME280;14852;51.910;8.878;2023-02-13T14:57:14;101747.00;;;11.54;59.61
26823;BME280;14852;51.910;8.878;2023-02-13T14:59:50;101739.19;;;11.54;59.80
26823;BME280;14852;51.910;8.878;2023-02-13T15:02:26;101743.53;;;11.55;60.23
26823;BME280;14852;51.910;8.878;2023-02-13T15:05:14;101740.88;;;11.56;60.05
26823;BME280;14852;51.910;8.878;2023-02-13T15:13:33;101735.72;;;11.55;60.12
26823;BME280;14852;51.910;8.878;2023-02-13T15:16:09;101730.66;;;11.49;60.14
26823;BME280;14852;51.910;8.878;2023-02-13T15:18:47;101735.06;;;11.47;60.38
26823;BME280;14852;51.910;8.878;2023-02-13T15:21:19;101730.81;;;11.43;59.90
26823;BME280;14852;51.910;8.878;2023-02-13T15:23:52;101730.91;;;11.40;60.38
26823;BME280;14852;51.910;8.878;2023-02-13T15:26:22;101725.72;;;11.38;60.06
26823;BME280;14852;51.910;8.878;2023-02-13T15:29:01;101733.50;;;11.40;60.28
26823;BME280;14852;51.910;8.878;2023-02-13T15:31:32;101735.28;;;11.38;60.61
26823;BME280;14852;51.910;8.878;2023-02-13T15:33:58;101727.56;;;11.33;60.52
26823;BME280;14852;51.910;8.878;2023-02-13T15:36:32;101723.31;;;11.31;60.57
26823;BME280;14852;51.910;8.878;2023-02-13T15:39:00;101721.63;;;11.28;60.86
26823;BME280;14852;51.910;8.878;2023-02-13T15:41:35;101720.88;;;11.23;60.67
26823;BME280;14852;51.910;8.878;2023-02-13T15:44:02;101720.19;;;11.16;60.38
26823;BME280;14852;51.910;8.878;2023-02-13T15:46:34;101718.53;;;11.12;60.59
26823;BME280;14852;51.910;8.878;2023-02-13T15:49:05;101722.09;;;11.08;60.69
26823;BME280;14852;51.910;8.878;2023-02-13T15:51:32;101717.00;;;11.04;60.75